Flight Track Log - Related Links

Times and Time Zones

All times are in EDT time to prevent confusion due to time zone crossing. See the JIA2475 flight status page for this flight to view local times or setup timezone preferences in your user account.

Time Position Orientation Groundspeed Altitude Reporting Facility
EDT Latitude Longitude Course Direction KTS MPH feet Rate Location/Type
Wed 10:03:06 PM 38.8167 -77.0333 180° South 160 184 1,400  Level Potomac TRACON
Wed 10:04:00 PM 38.7500 -77.0333 180° South 244 281 3,300 2,158 Climbing Potomac TRACON
Wed 10:05:00 PM 38.6068 -76.7757 134° Southeast  Level FlightAware Approximate
Wed 10:05:00 PM 38.6833 -77.0167 169° South 278 320 5,500  Level Potomac TRACON
Wed 10:06:00 PM 38.5168 -76.7134 171° South  Level FlightAware Approximate
Wed 10:06:06 PM 38.6000 -76.9833 163° South 307 353 8,500  Level Potomac TRACON
Wed 10:07:00 PM 38.4110 -76.7000 180° South  Level FlightAware Approximate
Wed 10:07:06 PM 38.5833 -76.8833 102° East 309 356 11,300  Level Potomac TRACON
Wed 10:08:00 PM 38.3175 -76.6833 180° South  Level FlightAware Approximate
Wed 10:08:01 PM 38.5667 -76.7833 102° East 309 356 13,600  Level Potomac TRACON
Wed 10:09:17 PM 38.4931 -76.7217 147° Southeast 322 371 15,800 1,796 Climbing Washington Center
Wed 10:10:18 PM 38.4017 -76.7069 173° South 327 376 17,700 1,587 Climbing Washington Center
Wed 10:11:18 PM 38.2994 -76.6897 172° South 333 383 19,000 645 Climbing Washington Center
Wed 10:12:19 PM 38.1933 -76.6750 174° South 358 412 19,000 102 Level Washington Center
Wed 10:13:16 PM 38.0808 -76.6628 175° South 384 442 19,200 615 Climbing Washington Center
Wed 10:14:16 PM 37.9664 -76.6481 174° South 405 466 20,200 942 Climbing Washington Center
Wed 10:15:17 PM 37.8514 -76.6569 183° South 410 472 21,100 885 Climbing Washington Center
Wed 10:16:18 PM 37.7344 -76.6736 186° South 415 478 22,000 893 Climbing Washington Center
Wed 10:17:18 PM 37.6156 -76.6903 186° South 425 489 22,900 900 Climbing Washington Center
Wed 10:18:18 PM 37.4986 -76.7044 185° South 425 489 23,800 555 Climbing Washington Center
Wed 10:19:17 PM 37.3856 -76.7342 192° South 425 489 24,000 101 Climbing Washington Center
Wed 10:20:17 PM 37.2767 -76.7794 198° South 420 483 24,000  Level Washington Center
Wed 10:21:18 PM 37.1700 -76.8272 200° South 415 478 24,000  Level Washington Center
Wed 10:22:16 PM 37.0631 -76.8725 199° South 410 472 24,000  Level Washington Center
Wed 10:23:16 PM 36.9583 -76.9150 198° South 410 472 24,000  Level Washington Center
Wed 10:24:17 PM 36.8472 -76.9519 195° South 410 472 24,000  Level Washington Center
Wed 10:25:18 PM 36.7342 -76.9889 195° South 415 478 24,000  Level Washington Center
Wed 10:26:18 PM 36.6189 -77.0283 195° South 426 490 24,000  Level Washington Center
Wed 10:27:18 PM 36.5081 -77.0675 196° South 426 490 24,000 -102 Level Washington Center
Wed 10:28:16 PM 36.4033 -77.0992 194° South 426 490 23,800 -655 Descending Washington Center
Wed 10:29:17 PM 36.2797 -77.1406 195° South 426 490 22,700 -1,033 Descending Washington Center
Wed 10:30:18 PM 36.1664 -77.1819 196° South 426 490 21,700 -1,041 Descending Washington Center
Wed 10:31:18 PM 36.0553 -77.2133 193° South 415 478 20,600 -1,240 Descending Washington Center
Wed 10:32:19 PM 35.9486 -77.2494 195° South 415 478 19,200 -1,373 Descending Washington Center
Wed 10:33:16 PM 35.8436 -77.2858 196° South 410 472 17,900 -1,311 Descending Washington Center
Wed 10:34:18 PM 35.7408 -77.3169 194° South 398 458 16,600 -1,388 Descending Washington Center
Wed 10:35:17 PM 35.6403 -77.3506 195° South 387 445 15,100 -1,500 Descending Washington Center
Wed 10:36:18 PM 35.5356 -77.3864 196° South 387 445 13,600 -1,537 Descending Washington Center
Wed 10:37:18 PM 35.4411 -77.4175 195° South 374 430 12,000 -1,424 Descending Washington Center
Wed 10:38:16 PM 35.3614 -77.4436 195° South 358 412 10,800 -1,373 Descending Washington Center
Wed 10:39:16 PM 35.2839 -77.4672 194° South 324 373 9,300 -1,488 Descending Washington Center
Wed 10:40:17 PM 35.2064 -77.4908 194° South 303 349 7,800 -1,426 Descending Washington Center
Wed 10:41:18 PM 35.1286 -77.5197 197° South 293 337 6,400 -1,289 Descending Washington Center
Wed 10:42:18 PM 35.0511 -77.5431 194° South 293 337 5,200 -1,319 Descending Washington Center
Wed 10:42:49 PM 35.0069 -77.5647 202° Southwest 282 325 4,400 -783 Descending Washington Center
Wed 10:43:50 PM 34.9453 -77.6217 217° Southwest 264 304 4,000 -298 Descending Washington Center
Wed 10:44:50 PM 34.8925 -77.6708 217° Southwest 220 253 3,800 -200 Descending Washington Center

Login

Don't have an account? Register now (free) for customized features, flight alerts, and more!